Time;durP1;ratioP1;P1;durP2;ratioP2;P2;SDS_P1;SDS_P2;PMS_P1;PMS_P2;Temp;Humidity;BMP_temperature;BMP_pressure;BME280_temperature;BME280_humidity;BME280_pressure;Samples;Min_cycle;Max_cycle;Signal;HPM_P1;HPM_P2
2023/05/08 00:00:28;;;;;;;3.88;3.28;;;23.40;52.00;;;;;;5082815;28;20318;-59
2023/05/08 00:02:54;;;;;;;3.40;3.03;;;23.40;52.00;;;;;;5082969;28;20038;-58
2023/05/08 00:05:20;;;;;;;3.80;3.38;;;23.40;52.00;;;;;;5084457;28;20096;-59
2023/05/08 00:07:46;;;;;;;3.63;3.17;;;23.40;52.00;;;;;;5088874;28;20016;-58
2023/05/08 00:10:12;;;;;;;3.53;3.22;;;23.40;52.00;;;;;;5086172;28;20123;-60
2023/05/08 00:12:38;;;;;;;3.20;2.90;;;23.40;52.00;;;;;;5083982;28;20447;-61
2023/05/08 00:15:04;;;;;;;3.58;3.28;;;23.40;51.90;;;;;;5084707;28;20397;-56
2023/05/08 00:17:30;;;;;;;4.05;3.40;;;23.40;51.90;;;;;;5085371;28;20055;-60
2023/05/08 00:19:56;;;;;;;3.78;3.20;;;23.40;51.90;;;;;;5085175;28;20054;-58
2023/05/08 00:22:22;;;;;;;4.05;3.50;;;23.40;51.90;;;;;;5086078;28;20379;-58
2023/05/08 00:24:47;;;;;;;3.42;2.97;;;23.40;51.90;;;;;;5090051;28;20139;-58
2023/05/08 00:27:13;;;;;;;3.92;3.35;;;23.30;51.80;;;;;;5090814;28;20107;-58
2023/05/08 00:29:39;;;;;;;3.47;3.08;;;23.30;51.80;;;;;;5072870;28;20371;-59
2023/05/08 00:32:09;;;;;;;3.40;3.10;;;23.30;51.80;;;;;;5090037;28;20390;-58
2023/05/08 00:34:35;;;;;;;4.25;3.25;;;23.30;51.80;;;;;;5090307;28;20360;-59
2023/05/08 00:37:02;;;;;;;4.07;3.38;;;23.30;51.70;;;;;;5091526;28;20036;-59
2023/05/08 00:39:28;;;;;;;3.80;3.40;;;23.30;51.70;;;;;;5092133;28;20040;-60
2023/05/08 00:41:54;;;;;;;3.20;2.85;;;23.30;51.70;;;;;;5092139;28;20028;-58
2023/05/08 00:44:20;;;;;;;3.38;3.03;;;23.30;51.70;;;;;;5091319;28;20039;-58
2023/05/08 00:46:46;;;;;;;4.15;3.60;;;23.30;51.60;;;;;;5091250;28;20067;-57
2023/05/08 00:49:14;;;;;;;3.25;2.95;;;23.30;51.60;;;;;;5073388;28;20115;-57
2023/05/08 00:51:42;;;;;;;4.10;3.47;;;23.30;51.60;;;;;;5091742;28;20076;-60
2023/05/08 00:54:08;;;;;;;3.28;2.83;;;23.30;51.60;;;;;;5091194;28;20092;-61
2023/05/08 00:56:37;;;;;;;3.97;3.33;;;23.30;51.70;;;;;;5068676;28;20119;-58
2023/05/08 00:59:07;;;;;;;3.65;3.13;;;23.30;51.60;;;;;;5067555;28;20439;-59
2023/05/08 01:01:35;;;;;;;4.18;3.60;;;23.30;51.50;;;;;;5069081;28;20077;-61
2023/05/08 01:04:02;;;;;;;3.30;3.00;;;23.30;51.50;;;;;;5083783;28;20028;-56
2023/05/08 01:06:28;;;;;;;3.42;3.03;;;23.30;51.50;;;;;;5082865;28;20104;-55
2023/05/08 01:08:54;;;;;;;3.92;3.25;;;23.30;51.50;;;;;;5082899;28;20076;-60
2023/05/08 01:11:50;;;;;;;4.07;3.38;;;23.20;51.40;;;;;;5089004;28;20078;-60
2023/05/08 01:14:21;;;;;;;3.78;3.33;;;23.20;51.40;;;;;;5082165;28;20150;-60
2023/05/08 01:17:15;;;;;;;4.00;3.60;;;23.20;51.40;;;;;;5066888;28;20036;-59
2023/05/08 01:20:08;;;;;;;4.30;3.20;;;23.20;51.40;;;;;;5060504;28;20125;-58
2023/05/08 01:23:11;;;;;;;3.40;3.10;;;23.20;51.40;;;;;;5083698;28;20379;-59
2023/05/08 01:25:55;;;;;;;3.58;3.00;;;23.20;51.30;;;;;;5084787;28;20484;-59
2023/05/08 01:28:40;;;;;;;3.37;2.90;;;23.20;51.30;;;;;;5078066;28;20095;-57
2023/05/08 01:31:44;;;;;;;3.13;2.83;;;23.20;51.30;;;;;;5066199;28;20092;-60
2023/05/08 01:34:18;;;;;;;3.97;3.17;;;23.20;51.30;;;;;;5021639;28;20034;-61
2023/05/08 01:36:52;;;;;;;3.77;3.20;;;23.20;51.30;;;;;;5057945;28;20040;-58
2023/05/08 01:39:48;;;;;;;3.92;3.00;;;23.20;51.30;;;;;;5067085;28;20373;-60
2023/05/08 01:42:13;;;;;;;4.05;3.30;;;23.20;51.30;;;;;;5072323;28;20032;-60
2023/05/08 01:44:52;;;;;;;4.65;3.42;;;23.10;51.20;;;;;;5066320;28;20484;-58
2023/05/08 01:47:22;;;;;;;3.47;3.17;;;23.20;51.30;;;;;;5083211;28;20040;-58
2023/05/08 01:49:55;;;;;;;3.47;3.10;;;23.10;51.20;;;;;;5066988;28;20076;-58
2023/05/08 01:52:47;;;;;;;3.30;3.00;;;23.10;51.20;;;;;;5066800;28;20143;-59
2023/05/08 01:55:20;;;;;;;4.00;3.30;;;23.10;51.10;;;;;;5084431;28;20126;-60
2023/05/08 01:57:49;;;;;;;3.38;3.05;;;23.10;51.10;;;;;;5084210;28;20033;-58
2023/05/08 02:00:19;;;;;;;3.95;3.17;;;23.10;51.10;;;;;;5066214;28;20044;-62
2023/05/08 02:02:48;;;;;;;3.92;3.53;;;23.10;51.00;;;;;;5066306;28;20021;-61
2023/05/08 02:05:15;;;;;;;3.53;3.22;;;23.10;51.00;;;;;;5083293;28;20024;-59
2023/05/08 02:07:44;;;;;;;3.22;2.92;;;23.10;51.00;;;;;;5084942;28;20028;-63
2023/05/08 02:10:12;;;;;;;3.67;3.33;;;23.10;50.90;;;;;;5081905;28;20032;-59
2023/05/08 02:12:39;;;;;;;4.18;3.25;;;23.10;50.90;;;;;;5065932;28;20443;-59
2023/05/08 02:15:08;;;;;;;3.50;3.00;;;23.10;50.90;;;;;;5082476;28;20055;-57
2023/05/08 02:17:37;;;;;;;3.55;3.25;;;23.10;50.90;;;;;;5063855;28;20133;-60
2023/05/08 02:20:03;;;;;;;3.92;3.50;;;23.10;50.80;;;;;;5083252;28;20044;-58
2023/05/08 02:22:31;;;;;;;3.30;3.00;;;23.10;50.80;;;;;;5087151;28;20032;-59
2023/05/08 02:24:57;;;;;;;3.47;3.17;;;23.10;50.80;;;;;;5071846;28;20103;-60
2023/05/08 02:27:27;;;;;;;3.38;3.00;;;23.10;50.80;;;;;;5090224;28;20024;-61
2023/05/08 02:29:56;;;;;;;3.55;3.20;;;23.10;50.80;;;;;;5072291;28;20393;-59
2023/05/08 02:32:25;;;;;;;3.90;3.50;;;23.10;50.70;;;;;;5090643;28;20027;-60
2023/05/08 02:34:54;;;;;;;3.42;3.13;;;23.00;50.60;;;;;;5071716;28;20347;-58
2023/05/08 02:37:21;;;;;;;3.55;3.13;;;23.10;50.70;;;;;;5072087;28;20138;-60
2023/05/08 02:39:48;;;;;;;3.10;2.80;;;23.10;50.60;;;;;;5071888;28;20032;-60
2023/05/08 02:42:14;;;;;;;3.22;2.85;;;23.10;50.60;;;;;;5072314;28;20043;-59
2023/05/08 02:44:40;;;;;;;3.45;3.15;;;23.00;50.60;;;;;;5072419;28;20074;-62
2023/05/08 02:47:27;;;;;;;3.58;3.22;;;23.00;50.60;;;;;;5071730;28;20439;-55
2023/05/08 02:50:12;;;;;;;3.97;3.58;;;23.00;50.50;;;;;;5072006;28;20088;-55
2023/05/08 02:52:46;;;;;;;4.18;3.42;;;23.00;50.50;;;;;;5071447;28;20131;-61
2023/05/08 02:55:25;;;;;;;3.08;2.78;;;23.00;50.50;;;;;;5070651;28;20025;-60
2023/05/08 02:58:10;;;;;;;4.03;3.22;;;23.00;50.50;;;;;;5067159;28;20036;-61
2023/05/08 03:00:47;;;;;;;3.10;2.85;;;23.00;50.50;;;;;;5088223;28;20044;-60
2023/05/08 03:03:18;;;;;;;3.70;3.28;;;23.00;50.50;;;;;;5068105;28;20016;-60
2023/05/08 03:05:52;;;;;;;3.53;3.22;;;23.00;50.40;;;;;;5066359;28;20050;-59
2023/05/08 03:08:24;;;;;;;4.38;3.55;;;23.00;50.40;;;;;;5071283;28;20020;-58
2023/05/08 03:10:53;;;;;;;3.60;3.30;;;23.00;50.40;;;;;;5050415;28;20028;-60
2023/05/08 03:13:20;;;;;;;3.47;3.17;;;23.00;50.40;;;;;;5087656;28;20120;-59
2023/05/08 03:15:53;;;;;;;3.20;2.90;;;23.00;50.40;;;;;;5069310;28;20028;-61
2023/05/08 03:18:24;;;;;;;3.90;2.92;;;23.00;50.40;;;;;;5086252;28;20423;-61
2023/05/08 03:20:54;;;;;;;3.67;3.33;;;22.90;50.30;;;;;;5067089;28;20047;-57
2023/05/08 03:23:25;;;;;;;3.78;3.33;;;23.00;50.40;;;;;;5082915;28;20214;-58
2023/05/08 03:25:52;;;;;;;3.80;3.40;;;22.90;50.30;;;;;;5084073;28;20119;-60
2023/05/08 03:28:20;;;;;;;3.58;3.28;;;22.90;50.20;;;;;;5050418;28;20127;-57
2023/05/08 03:30:49;;;;;;;3.50;3.20;;;22.90;50.20;;;;;;5069287;28;20028;-57
2023/05/08 03:33:16;;;;;;;3.38;3.03;;;22.90;50.20;;;;;;5053007;28;20056;-63
2023/05/08 03:35:43;;;;;;;4.80;3.70;;;22.90;50.20;;;;;;5086406;28;20358;-61
2023/05/08 03:38:10;;;;;;;3.78;3.45;;;22.90;50.20;;;;;;5085852;28;20031;-60
2023/05/08 03:40:41;;;;;;;3.78;3.47;;;22.90;50.20;;;;;;5084044;28;20285;-60
2023/05/08 03:43:09;;;;;;;3.13;2.83;;;22.90;50.20;;;;;;5065223;28;20085;-59
2023/05/08 03:45:37;;;;;;;3.58;3.28;;;22.90;50.10;;;;;;5052234;28;20069;-59
2023/05/08 03:48:05;;;;;;;3.45;3.15;;;22.90;50.10;;;;;;5047806;28;20098;-64
2023/05/08 03:50:35;;;;;;;3.60;3.30;;;22.90;50.10;;;;;;5046169;28;20029;-57
2023/05/08 03:53:01;;;;;;;3.65;3.35;;;22.90;50.10;;;;;;5025612;28;20120;-59
2023/05/08 03:55:28;;;;;;;3.20;2.90;;;22.90;50.10;;;;;;5046832;28;20021;-59
2023/05/08 03:58:28;;;;;;;3.88;3.50;;;22.90;50.00;;;;;;5045506;28;20033;-60
2023/05/08 04:01:30;;;;;;;3.88;3.47;;;22.90;50.00;;;;;;5046779;28;20025;-58
2023/05/08 04:04:19;;;;;;;3.22;2.90;;;22.90;50.00;;;;;;5043405;28;20114;-60
2023/05/08 04:07:05;;;;;;;3.30;3.00;;;22.90;49.90;;;;;;5044583;28;20405;-58
2023/05/08 04:10:02;;;;;;;3.58;3.15;;;22.90;50.00;;;;;;5029144;28;20117;-65
2023/05/08 04:12:35;;;;;;;3.28;2.92;;;22.80;49.90;;;;;;5063439;28;20436;-60
2023/05/08 04:15:09;;;;;;;3.30;3.00;;;22.80;49.90;;;;;;5060014;28;20029;-61
2023/05/08 04:17:44;;;;;;;3.28;2.63;;;22.80;49.90;;;;;;5042288;28;20047;-59
2023/05/08 04:20:16;;;;;;;3.35;2.97;;;22.80;49.90;;;;;;5059159;28;20471;-57
2023/05/08 04:22:45;;;;;;;3.80;3.35;;;22.80;49.90;;;;;;5028414;28;20472;-59
2023/05/08 04:25:13;;;;;;;3.53;3.10;;;22.80;49.90;;;;;;5047335;28;20029;-56
2023/05/08 04:27:40;;;;;;;3.97;3.30;;;22.80;49.90;;;;;;5052500;28;20060;-62
2023/05/08 04:30:08;;;;;;;3.50;3.20;;;22.80;49.90;;;;;;5050715;28;20114;-60
2023/05/08 04:32:35;;;;;;;3.60;3.30;;;22.80;49.80;;;;;;5050864;28;20048;-60
2023/05/08 04:35:02;;;;;;;3.45;3.13;;;22.80;49.80;;;;;;5051387;28;20124;-62
2023/05/08 04:37:32;;;;;;;3.25;2.95;;;22.80;49.80;;;;;;5050370;28;20094;-59
2023/05/08 04:40:00;;;;;;;3.50;3.20;;;22.80;49.80;;;;;;5050385;28;20025;-60
2023/05/08 04:42:27;;;;;;;3.92;3.53;;;22.80;49.70;;;;;;5050720;28;20052;-58
2023/05/08 04:44:55;;;;;;;3.60;3.13;;;22.80;49.70;;;;;;5053699;28;20033;-58
2023/05/08 04:47:22;;;;;;;3.72;3.17;;;22.80;49.70;;;;;;5073775;28;20032;-60
2023/05/08 04:49:49;;;;;;;3.45;3.03;;;22.80;49.70;;;;;;5073792;28;20173;-59
2023/05/08 04:52:14;;;;;;;3.65;3.20;;;22.80;49.70;;;;;;5072991;28;20063;-59
2023/05/08 04:54:40;;;;;;;4.35;3.67;;;22.80;49.70;;;;;;5070750;28;20412;-61
2023/05/08 04:57:07;;;;;;;3.53;3.00;;;22.80;49.70;;;;;;5067463;28;20102;-59
2023/05/08 04:59:33;;;;;;;3.42;3.13;;;22.80;49.70;;;;;;5068513;28;20170;-59
2023/05/08 05:02:02;;;;;;;3.00;2.78;;;22.80;49.70;;;;;;5064876;28;20024;-61
2023/05/08 05:04:29;;;;;;;3.00;2.70;;;22.80;49.60;;;;;;5067156;28;20374;-61
2023/05/08 05:06:55;;;;;;;3.35;3.03;;;22.80;49.60;;;;;;5068887;28;20075;-61
2023/05/08 05:09:22;;;;;;;3.50;3.20;;;22.80;49.60;;;;;;5082827;28;20077;-60
2023/05/08 05:11:47;;;;;;;3.28;2.97;;;22.80;49.60;;;;;;5063776;28;20028;-60
2023/05/08 05:14:13;;;;;;;3.35;3.05;;;22.80;49.60;;;;;;5065054;28;20106;-60
2023/05/08 05:16:40;;;;;;;3.55;3.25;;;22.80;49.60;;;;;;5063676;28;20356;-61
2023/05/08 05:19:06;;;;;;;3.13;2.83;;;22.80;49.60;;;;;;5068535;28;20039;-60
2023/05/08 05:21:32;;;;;;;3.28;2.97;;;22.80;49.60;;;;;;5065147;28;20119;-61
2023/05/08 05:23:58;;;;;;;3.20;2.88;;;22.80;49.60;;;;;;5066447;28;20028;-58
2023/05/08 05:26:24;;;;;;;3.38;3.08;;;22.80;49.70;;;;;;5066668;28;20364;-61
2023/05/08 05:28:50;;;;;;;3.38;3.08;;;22.80;49.70;;;;;;5051651;28;20077;-59
2023/05/08 05:31:16;;;;;;;3.65;3.35;;;22.80;49.70;;;;;;5066582;28;20157;-61
2023/05/08 05:33:42;;;;;;;3.15;2.80;;;22.80;49.70;;;;;;5065681;28;20428;-60
2023/05/08 05:36:08;;;;;;;3.78;3.30;;;22.80;49.70;;;;;;5066918;28;20455;-60
2023/05/08 05:38:34;;;;;;;4.43;3.22;;;22.80;49.70;;;;;;5066753;28;20032;-59
2023/05/08 05:41:00;;;;;;;4.38;3.08;;;22.80;49.70;;;;;;5066261;28;20036;-60
2023/05/08 05:43:25;;;;;;;3.22;2.85;;;22.80;49.70;;;;;;5065472;28;20020;-60
2023/05/08 05:45:51;;;;;;;3.28;2.92;;;22.90;49.70;;;;;;5063059;28;20070;-61
2023/05/08 05:48:18;;;;;;;3.20;2.90;;;22.80;49.60;;;;;;5063252;28;20032;-61
2023/05/08 05:50:44;;;;;;;3.30;3.00;;;22.80;49.60;;;;;;5063925;28;20055;-59
2023/05/08 05:53:11;;;;;;;3.17;2.50;;;22.80;49.60;;;;;;5063126;28;20143;-60
2023/05/08 05:55:37;;;;;;;3.30;3.00;;;22.90;49.70;;;;;;5064516;28;20050;-59
2023/05/08 05:58:04;;;;;;;3.22;2.92;;;22.90;49.60;;;;;;5062239;28;20020;-61
2023/05/08 06:00:31;;;;;;;3.47;3.17;;;22.90;49.70;;;;;;5061976;28;20054;-60
2023/05/08 06:02:57;;;;;;;3.40;3.10;;;22.90;49.70;;;;;;5063199;28;20124;-56
2023/05/08 06:05:23;;;;;;;3.20;2.85;;;22.90;49.70;;;;;;5061401;28;20123;-63
2023/05/08 06:07:50;;;;;;;3.20;2.90;;;22.90;49.70;;;;;;5068714;28;20324;-56
2023/05/08 06:10:16;;;;;;;3.30;3.00;;;22.90;49.70;;;;;;5066726;28;20024;-61
2023/05/08 06:12:41;;;;;;;3.08;2.78;;;22.90;49.70;;;;;;5066868;28;20050;-56
2023/05/08 06:15:09;;;;;;;3.03;2.72;;;22.90;49.70;;;;;;5068554;28;20120;-56
2023/05/08 06:17:35;;;;;;;2.80;2.60;;;22.90;49.70;;;;;;5063609;28;20098;-59
2023/05/08 06:20:02;;;;;;;3.17;2.88;;;23.00;49.80;;;;;;5066898;28;20043;-57
2023/05/08 06:22:28;;;;;;;4.10;3.10;;;22.90;49.80;;;;;;5064539;28;20036;-61
2023/05/08 06:24:56;;;;;;;3.75;3.45;;;23.00;49.80;;;;;;5063598;28;20086;-62
2023/05/08 06:27:22;;;;;;;3.60;3.13;;;23.00;49.80;;;;;;5062876;28;20041;-59
2023/05/08 06:29:52;;;;;;;5.22;3.20;;;22.90;49.80;;;;;;5063509;28;20082;-59
2023/05/08 06:32:18;;;;;;;3.97;3.30;;;23.00;49.90;;;;;;5063114;28;20399;-59
2023/05/08 06:34:44;;;;;;;3.97;3.25;;;23.00;49.90;;;;;;5065588;28;20036;-59
2023/05/08 06:37:10;;;;;;;3.65;3.25;;;23.00;50.00;;;;;;5062913;28;20075;-60
2023/05/08 06:39:37;;;;;;;4.38;3.50;;;23.00;50.00;;;;;;5060768;28;20039;-65
2023/05/08 06:42:07;;;;;;;4.78;3.92;;;23.00;50.00;;;;;;5063918;28;20436;-61
2023/05/08 06:44:36;;;;;;;5.00;3.63;;;23.00;50.10;;;;;;5064828;28;20363;-60
2023/05/08 06:47:02;;;;;;;4.40;3.90;;;23.00;50.10;;;;;;5080969;28;20048;-62
2023/05/08 06:49:28;;;;;;;5.95;4.35;;;23.00;50.20;;;;;;5067575;28;20039;-63
2023/05/08 06:51:54;;;;;;;5.72;4.70;;;23.00;50.20;;;;;;5084533;28;20028;-59
2023/05/08 06:54:20;;;;;;;6.78;5.20;;;23.00;50.20;;;;;;5083607;28;20122;-62
2023/05/08 06:56:46;;;;;;;7.03;6.13;;;23.00;50.20;;;;;;5087344;28;20134;-60
2023/05/08 06:59:12;;;;;;;8.07;6.65;;;23.00;50.30;;;;;;5088415;28;20035;-60
2023/05/08 07:01:37;;;;;;;7.57;6.78;;;23.10;50.40;;;;;;5088888;28;20376;-58
2023/05/08 07:04:03;;;;;;;8.90;6.80;;;23.00;50.40;;;;;;5087690;28;20092;-62
2023/05/08 07:06:30;;;;;;;7.10;6.25;;;23.10;50.50;;;;;;5088220;28;20032;-59
2023/05/08 07:08:56;;;;;;;8.18;6.85;;;23.00;50.40;;;;;;5086795;28;20047;-60
2023/05/08 07:11:22;;;;;;;8.35;6.68;;;23.10;50.40;;;;;;5088670;28;20024;-59
2023/05/08 07:13:49;;;;;;;9.13;7.07;;;23.10;50.40;;;;;;5091259;28;20094;-60
2023/05/08 07:16:15;;;;;;;9.32;7.07;;;23.10;50.50;;;;;;5093675;28;20410;-60
2023/05/08 07:18:42;;;;;;;9.13;7.35;;;23.10;50.50;;;;;;5092678;28;20043;-57
2023/05/08 07:21:08;;;;;;;8.65;6.78;;;23.10;50.60;;;;;;5089084;28;20024;-60
2023/05/08 07:23:34;;;;;;;9.10;7.22;;;23.10;50.60;;;;;;5092565;28;20036;-61
2023/05/08 07:26:00;;;;;;;10.68;7.68;;;23.10;50.60;;;;;;5075221;28;20039;-59
2023/05/08 07:28:26;;;;;;;8.70;7.07;;;23.10;50.60;;;;;;5092639;28;20046;-59
2023/05/08 07:30:51;;;;;;;10.10;7.85;;;23.10;50.50;;;;;;5090937;28;20028;-61
2023/05/08 07:33:18;;;;;;;9.90;7.75;;;23.10;50.50;;;;;;5088062;28;20043;-60
2023/05/08 07:35:44;;;;;;;9.07;7.22;;;23.10;50.50;;;;;;5086862;28;20058;-57
2023/05/08 07:38:10;;;;;;;9.60;7.90;;;23.20;50.60;;;;;;5084171;28;20139;-62
2023/05/08 07:40:36;;;;;;;10.30;8.30;;;23.20;50.60;;;;;;5088835;28;20024;-60
2023/05/08 07:43:02;;;;;;;10.75;8.68;;;23.20;50.60;;;;;;5088278;28;20032;-60
2023/05/08 07:45:28;;;;;;;11.45;9.30;;;23.20;50.60;;;;;;5066576;28;20368;-63
2023/05/08 07:47:56;;;;;;;11.68;9.88;;;23.20;50.60;;;;;;5087520;28;20070;-60
2023/05/08 07:50:23;;;;;;;12.50;10.27;;;23.30;50.80;;;;;;5087034;28;20093;-59
2023/05/08 07:52:49;;;;;;;12.35;9.85;;;23.20;50.70;;;;;;5086802;28;20104;-64
2023/05/08 07:55:18;;;;;;;11.60;9.65;;;23.20;50.80;;;;;;5085411;28;20059;-63
2023/05/08 07:57:44;;;;;;;14.70;10.25;;;23.20;50.70;;;;;;5086089;28;20105;-62
2023/05/08 08:00:12;;;;;;;11.07;9.40;;;23.30;50.80;;;;;;5085795;28;20402;-60
2023/05/08 08:02:41;;;;;;;13.93;10.32;;;23.30;50.80;;;;;;5087841;28;20131;-61
2023/05/08 08:05:07;;;;;;;11.45;9.48;;;23.30;50.80;;;;;;5086485;28;20105;-64
2023/05/08 08:07:34;;;;;;;12.48;10.30;;;23.30;50.80;;;;;;5086182;28;20106;-60
2023/05/08 08:10:01;;;;;;;12.80;11.02;;;23.30;50.80;;;;;;5087376;28;20069;-57
2023/05/08 08:12:27;;;;;;;13.80;11.20;;;23.30;50.80;;;;;;5087602;28;20039;-58
2023/05/08 08:14:53;;;;;;;14.10;11.35;;;23.30;50.80;;;;;;5086465;28;20040;-59
2023/05/08 08:17:19;;;;;;;13.52;11.65;;;23.30;50.80;;;;;;5085778;28;20396;-62
2023/05/08 08:19:45;;;;;;;15.18;11.93;;;23.30;50.90;;;;;;5074347;28;20100;-60
2023/05/08 08:22:11;;;;;;;14.82;12.20;;;23.30;50.90;;;;;;5092591;28;20054;-61
2023/05/08 08:24:37;;;;;;;15.82;12.45;;;23.30;50.90;;;;;;5092480;28;20040;-59
2023/05/08 08:27:03;;;;;;;16.45;12.80;;;23.30;51.00;;;;;;5091337;28;20035;-60
2023/05/08 08:29:29;;;;;;;15.75;13.23;;;23.30;51.00;;;;;;5091174;28;20028;-61
2023/05/08 08:31:55;;;;;;;16.77;14.00;;;23.30;51.00;;;;;;5092198;28;20039;-61
2023/05/08 08:34:21;;;;;;;15.85;13.45;;;23.40;51.10;;;;;;5092364;28;20506;-62
2023/05/08 08:36:47;;;;;;;15.68;13.07;;;23.30;51.10;;;;;;5091991;28;20051;-63
2023/05/08 08:39:13;;;;;;;17.33;13.68;;;23.40;51.10;;;;;;5092585;28;20442;-61
2023/05/08 08:41:39;;;;;;;18.15;14.07;;;23.40;51.20;;;;;;5092062;28;20330;-63
2023/05/08 08:44:05;;;;;;;18.52;14.65;;;23.40;51.20;;;;;;5090934;28;20059;-64
2023/05/08 08:46:34;;;;;;;19.02;15.63;;;23.40;51.20;;;;;;5091597;28;20059;-61
2023/05/08 08:49:03;;;;;;;18.75;15.45;;;23.40;51.20;;;;;;5073415;28;20035;-62
2023/05/08 08:51:30;;;;;;;17.90;15.02;;;23.40;51.30;;;;;;5092017;28;20172;-61
2023/05/08 08:54:19;;;;;;;17.88;14.20;;;23.40;51.30;;;;;;5091582;28;20089;-61
2023/05/08 08:56:48;;;;;;;18.98;14.93;;;23.40;51.30;;;;;;5090787;28;20104;-63
2023/05/08 08:59:16;;;;;;;16.05;14.02;;;23.40;51.40;;;;;;5073502;28;20035;-61
2023/05/08 09:01:46;;;;;;;17.52;14.43;;;23.40;51.40;;;;;;5091579;28;20119;-63
2023/05/08 09:04:12;;;;;;;16.13;13.88;;;23.40;51.50;;;;;;5091642;28;20028;-60
2023/05/08 09:06:41;;;;;;;18.15;14.10;;;23.40;51.50;;;;;;5091323;28;20032;-61
2023/05/08 09:09:07;;;;;;;16.83;14.48;;;23.50;51.60;;;;;;5090148;28;20371;-64
2023/05/08 09:11:36;;;;;;;18.65;15.13;;;23.40;51.50;;;;;;5091150;28;20023;-63
2023/05/08 09:14:02;;;;;;;16.58;13.80;;;23.50;51.60;;;;;;5091253;28;20342;-62
2023/05/08 09:16:28;;;;;;;17.75;14.35;;;23.50;51.60;;;;;;5091299;28;20424;-62
2023/05/08 09:18:54;;;;;;;18.45;15.05;;;23.50;51.60;;;;;;5090539;28;20055;-62
2023/05/08 09:21:21;;;;;;;17.52;13.45;;;23.50;51.70;;;;;;5091428;28;20063;-61
2023/05/08 09:24:04;;;;;;;17.33;14.50;;;23.50;51.70;;;;;;5091244;28;20110;-61
2023/05/08 09:26:34;;;;;;;17.70;14.38;;;23.50;52.40;;;;;;5091410;28;20160;-63
2023/05/08 09:29:21;;;;;;;18.40;14.70;;;23.50;51.80;;;;;;5091034;28;20102;-61
2023/05/08 09:31:51;;;;;;;19.48;14.23;;;23.50;51.70;;;;;;5090415;28;20052;-64
2023/05/08 09:34:28;;;;;;;18.02;14.40;;;23.50;51.80;;;;;;5072976;28;20046;-60
2023/05/08 09:37:10;;;;;;;18.10;13.82;;;23.60;51.80;;;;;;5072578;28;20032;-60
2023/05/08 09:39:40;;;;;;;16.65;13.73;;;23.60;51.80;;;;;;5090983;28;20132;-61
2023/05/08 09:42:06;;;;;;;17.95;14.55;;;23.60;51.80;;;;;;5090661;28;20339;-62
2023/05/08 09:44:46;;;;;;;16.42;14.25;;;23.60;51.80;;;;;;5091324;28;20129;-60
2023/05/08 09:47:17;;;;;;;18.23;14.45;;;23.60;51.90;;;;;;5089443;28;20064;-62
2023/05/08 09:50:03;;;;;;;18.73;14.75;;;23.60;51.90;;;;;;5090757;28;20392;-61
2023/05/08 09:52:31;;;;;;;19.35;15.32;;;23.60;51.90;;;;;;5090513;28;20403;-63
2023/05/08 09:55:01;;;;;;;18.33;14.98;;;23.60;52.00;;;;;;5090702;28;20038;-61
2023/05/08 09:57:28;;;;;;;20.27;16.40;;;23.60;52.60;;;;;;5090657;28;20052;-60
2023/05/08 10:00:09;;;;;;;19.63;16.45;;;23.60;52.00;;;;;;5090613;28;20032;-61
2023/05/08 10:02:40;;;;;;;21.50;17.10;;;23.60;52.00;;;;;;5052636;28;20044;-63
2023/05/08 10:05:23;;;;;;;20.27;16.80;;;23.60;52.10;;;;;;5070464;28;20033;-61
2023/05/08 10:07:49;;;;;;;20.92;17.17;;;23.60;52.10;;;;;;5079136;28;20036;-61
2023/05/08 10:10:25;;;;;;;20.48;17.60;;;23.70;52.20;;;;;;5090673;28;20081;-61
2023/05/08 10:12:52;;;;;;;21.15;17.88;;;23.70;52.20;;;;;;5090634;28;20043;-59
2023/05/08 10:15:22;;;;;;;20.50;17.77;;;23.70;52.20;;;;;;5072162;28;20028;-60
2023/05/08 10:17:57;;;;;;;28.45;24.77;;;23.70;52.20;;;;;;5084789;28;20177;-64
2023/05/08 10:20:27;;;;;;;36.33;31.30;;;23.70;52.20;;;;;;5070066;28;20088;-64
2023/05/08 10:22:56;;;;;;;34.97;29.55;;;23.70;52.40;;;;;;5088207;28;20036;-59
2023/05/08 10:25:23;;;;;;;33.53;30.02;;;23.80;52.50;;;;;;5087251;28;20089;-64
2023/05/08 10:28:26;;;;;;;32.55;29.00;;;23.80;52.50;;;;;;5068816;28;20056;-61
2023/05/08 10:30:58;;;;;;;30.35;27.17;;;23.80;52.50;;;;;;5081037;28;20097;-65
2023/05/08 10:33:33;;;;;;;28.17;25.13;;;23.80;52.50;;;;;;5080882;28;20114;-60
2023/05/08 10:35:59;;;;;;;27.38;24.33;;;23.90;52.50;;;;;;5084055;28;20024;-61
2023/05/08 10:38:26;;;;;;;25.13;22.42;;;23.80;52.50;;;;;;5077110;28;20119;-61
2023/05/08 10:40:58;;;;;;;24.88;22.17;;;23.90;52.60;;;;;;5088701;28;20472;-63
2023/05/08 10:43:24;;;;;;;24.23;21.67;;;23.90;52.60;;;;;;5069858;28;20435;-60
2023/05/08 10:45:54;;;;;;;33.90;29.23;;;23.90;52.40;;;;;;5088156;28;20048;-61
2023/05/08 10:48:40;;;;;;;38.55;34.33;;;23.90;52.60;;;;;;5088109;28;20105;-62
2023/05/08 10:51:22;;;;;;;40.58;36.28;;;23.90;52.80;;;;;;5087720;28;20058;-62
2023/05/08 10:53:50;;;;;;;42.17;37.55;;;24.00;52.90;;;;;;5067549;28;20115;-61
2023/05/08 10:56:16;;;;;;;46.05;40.22;;;24.00;53.10;;;;;;5090039;28;20089;-62
2023/05/08 10:58:41;;;;;;;43.22;38.63;;;24.00;53.20;;;;;;5086208;28;20020;-61
2023/05/08 11:01:07;;;;;;;46.63;41.55;;;24.00;53.30;;;;;;5087950;28;20020;-62
2023/05/08 11:03:42;;;;;;;44.20;39.17;;;24.00;53.30;;;;;;5087818;28;20097;-64
2023/05/08 11:06:09;;;;;;;45.78;40.35;;;24.00;53.30;;;;;;5086393;28;20035;-61
2023/05/08 11:08:54;;;;;;;46.92;40.15;;;24.00;53.40;;;;;;5081868;28;20099;-62
2023/05/08 11:11:33;;;;;;;43.55;38.30;;;24.10;53.50;;;;;;5079652;28;20429;-64
2023/05/08 11:14:12;;;;;;;42.90;38.45;;;24.00;53.60;;;;;;5083905;28;20036;-61
2023/05/08 11:16:53;;;;;;;43.85;39.15;;;24.10;53.80;;;;;;5087550;28;20381;-62
2023/05/08 11:19:20;;;;;;;42.80;37.08;;;24.10;54.00;;;;;;5086621;28;20126;-60
2023/05/08 11:22:22;;;;;;;42.33;37.83;;;24.00;54.80;;;;;;5086089;28;20193;-62
2023/05/08 11:24:54;;;;;;;41.47;37.03;;;24.00;54.30;;;;;;5084590;28;20024;-60
2023/05/08 11:27:39;;;;;;;45.63;39.10;;;24.00;54.60;;;;;;5087235;28;20039;-59
2023/05/08 11:30:33;;;;;;;41.08;36.03;;;24.00;54.70;;;;;;5090001;28;20042;-64
2023/05/08 11:33:02;;;;;;;44.65;36.88;;;24.00;55.00;;;;;;5089267;28;20432;-60
2023/05/08 11:35:50;;;;;;;42.85;36.28;;;24.00;55.10;;;;;;5089660;28;20032;-60
2023/05/08 11:38:21;;;;;;;42.28;35.78;;;24.00;55.30;;;;;;5089625;28;20047;-62
2023/05/08 11:41:11;;;;;;;43.45;37.17;;;24.00;55.40;;;;;;5091775;28;20384;-60
2023/05/08 11:43:54;;;;;;;43.58;37.85;;;24.00;55.60;;;;;;5087813;28;20466;-62
2023/05/08 11:46:21;;;;;;;46.22;38.70;;;24.00;55.70;;;;;;5072613;28;20054;-62
2023/05/08 11:49:00;;;;;;;43.20;38.50;;;24.00;55.70;;;;;;5087403;28;20178;-61
2023/05/08 11:51:31;;;;;;;41.17;36.80;;;24.10;55.90;;;;;;5068317;28;20396;-61
2023/05/08 11:53:58;;;;;;;41.22;36.72;;;24.00;55.90;;;;;;5069025;28;20359;-63
2023/05/08 11:56:25;;;;;;;43.80;35.65;;;24.10;56.00;;;;;;5084021;28;20078;-61
2023/05/08 11:59:03;;;;;;;39.92;35.60;;;24.10;56.10;;;;;;5087000;28;20457;-63
2023/05/08 12:01:30;;;;;;;40.67;36.30;;;24.00;56.10;;;;;;5086350;28;20195;-61
2023/05/08 12:04:14;;;;;;;42.63;37.80;;;24.10;56.20;;;;;;5085271;28;20336;-60
2023/05/08 12:06:41;;;;;;;41.40;36.92;;;24.10;56.20;;;;;;5087638;28;20076;-61
2023/05/08 12:09:12;;;;;;;40.63;36.25;;;24.00;56.20;;;;;;5084745;28;20040;-60
2023/05/08 12:11:40;;;;;;;42.42;37.92;;;24.10;56.30;;;;;;5068959;28;20115;-60
2023/05/08 12:14:06;;;;;;;42.25;36.83;;;24.10;56.40;;;;;;5067628;28;20047;-62
2023/05/08 12:16:35;;;;;;;41.30;36.80;;;24.10;56.40;;;;;;5085586;28;20032;-62
2023/05/08 12:19:01;;;;;;;40.60;36.30;;;24.10;56.50;;;;;;5066168;28;20028;-63
2023/05/08 12:21:27;;;;;;;42.38;37.70;;;24.10;56.50;;;;;;5069205;28;20180;-64
2023/05/08 12:23:54;;;;;;;40.42;36.03;;;24.10;56.60;;;;;;5083195;28;20395;-63
2023/05/08 12:26:21;;;;;;;38.28;34.17;;;24.10;56.60;;;;;;5084088;28;20481;-64
2023/05/08 12:28:54;;;;;;;37.50;33.30;;;24.10;56.50;;;;;;5083290;28;20032;-64
2023/05/08 12:31:21;;;;;;;36.83;32.45;;;24.20;56.50;;;;;;5086123;28;20141;-65
2023/05/08 12:33:47;;;;;;;35.33;29.98;;;24.20;56.50;;;;;;5068762;28;20032;-65
2023/05/08 12:36:16;;;;;;;33.08;29.50;;;24.20;56.40;;;;;;5069123;28;20477;-64
2023/05/08 12:38:44;;;;;;;31.67;28.20;;;24.30;56.30;;;;;;5087241;28;20797;-66
2023/05/08 12:41:11;;;;;;;30.83;26.27;;;24.40;56.10;;;;;;5065140;28;22312;-64
2023/05/08 12:43:37;;;;;;;32.30;28.90;;;24.50;55.90;;;;;;5085124;28;20086;-66
2023/05/08 12:46:04;;;;;;;28.02;25.00;;;24.60;55.70;;;;;;5087711;28;20052;-67
2023/05/08 12:48:30;;;;;;;26.80;24.05;;;24.70;55.40;;;;;;5083891;28;20122;-63
2023/05/08 12:51:03;;;;;;;27.58;24.63;;;24.70;55.00;;;;;;5085182;28;20095;-65
2023/05/08 12:53:32;;;;;;;27.40;24.48;;;24.90;54.80;;;;;;5085415;28;20048;-62